createdAt,value
2023-01-01T00:00:01.927Z,100702.91
2023-01-01T00:02:37.670Z,100710.00
2023-01-01T00:05:05.922Z,100694.59
2023-01-01T00:07:33.000Z,100716.63
2023-01-01T00:10:18.320Z,100714.38
2023-01-01T00:12:45.209Z,100706.72
2023-01-01T00:15:12.035Z,100713.09
2023-01-01T00:17:39.263Z,100721.41
2023-01-01T00:20:06.859Z,100713.53
2023-01-01T00:25:20.724Z,100722.72
2023-01-01T00:27:47.682Z,100721.34
2023-01-01T00:30:15.243Z,100728.22
2023-01-01T00:32:42.117Z,100718.25
2023-01-01T00:35:09.732Z,100720.13
2023-01-01T00:37:39.426Z,100724.28
2023-01-01T00:40:11.094Z,100725.13
2023-01-01T00:42:40.788Z,100723.47
2023-01-01T00:45:08.691Z,100718.88
2023-01-01T00:47:35.799Z,100723.91
2023-01-01T00:50:03.479Z,100726.00
2023-01-01T00:52:32.026Z,100726.16
2023-01-01T00:54:59.507Z,100703.41
2023-01-01T00:57:26.587Z,100725.84
2023-01-01T00:59:53.494Z,100722.38
2023-01-01T01:02:20.750Z,100729.81
2023-01-01T01:04:47.738Z,100725.22
2023-01-01T01:07:14.804Z,100715.66
2023-01-01T01:09:41.746Z,100697.03
2023-01-01T01:12:17.964Z,100705.28
2023-01-01T01:14:46.137Z,100721.59
2023-01-01T01:17:13.145Z,100709.09
2023-01-01T01:19:40.164Z,100691.22
2023-01-01T01:22:07.016Z,100718.31
2023-01-01T01:24:34.061Z,100724.81
2023-01-01T01:27:01.047Z,100726.47
2023-01-01T01:29:28.016Z,100708.13
2023-01-01T01:31:55.229Z,100718.50
2023-01-01T01:34:27.436Z,100720.34
2023-01-01T01:36:57.323Z,100716.13
2023-01-01T01:39:24.197Z,100727.31
2023-01-01T01:41:51.334Z,100728.16
2023-01-01T01:44:46.423Z,100721.78
2023-01-01T01:47:27.438Z,100710.84
2023-01-01T01:50:29.026Z,100718.31
2023-01-01T01:52:56.001Z,100723.75
2023-01-01T01:55:23.086Z,100721.91
2023-01-01T01:57:50.345Z,100723.13
2023-01-01T02:00:17.272Z,100719.78
2023-01-01T02:02:55.112Z,100700.84
2023-01-01T02:05:23.099Z,100711.19
2023-01-01T02:07:52.096Z,100704.72
2023-01-01T02:10:19.189Z,100710.53
2023-01-01T02:12:46.311Z,100710.75
2023-01-01T02:15:13.792Z,100690.44
2023-01-01T02:17:54.716Z,100697.06
2023-01-01T02:20:34.721Z,100700.41
2023-01-01T02:23:36.899Z,100692.00
2023-01-01T02:26:22.104Z,100704.94
2023-01-01T02:29:05.637Z,100700.13
2023-01-01T02:31:39.946Z,100696.19
2023-01-01T02:34:12.974Z,100689.72
2023-01-01T02:36:50.677Z,100687.44
2023-01-01T02:39:21.503Z,100695.59
2023-01-01T02:41:53.036Z,100692.25
2023-01-01T02:44:22.472Z,100704.53
2023-01-01T02:46:49.424Z,100692.03
2023-01-01T02:49:16.392Z,100692.91
2023-01-01T02:52:04.927Z,100668.22
2023-01-01T02:54:41.353Z,100665.16
2023-01-01T02:57:23.386Z,100685.72
2023-01-01T03:00:21.784Z,100617.06
2023-01-01T03:03:26.521Z,100678.47
2023-01-01T03:06:24.530Z,100680.16
2023-01-01T03:09:06.587Z,100681.44
2023-01-01T03:11:43.910Z,100661.28
2023-01-01T03:14:28.025Z,100680.16
2023-01-01T03:16:59.542Z,100665.63
2023-01-01T03:19:31.955Z,100667.50
2023-01-01T03:22:10.626Z,100676.00
2023-01-01T03:24:44.392Z,100661.06
2023-01-01T03:27:23.767Z,100674.97
2023-01-01T03:29:53.623Z,100674.69
2023-01-01T03:32:46.827Z,100665.41
2023-01-01T03:35:16.184Z,100664.75
2023-01-01T03:37:45.360Z,100689.09
2023-01-01T03:40:14.385Z,100675.75
2023-01-01T03:42:48.700Z,100663.50
2023-01-01T03:45:28.597Z,100686.38
2023-01-01T03:47:56.827Z,100696.34
2023-01-01T03:50:33.714Z,100691.44
2023-01-01T03:53:10.127Z,100680.81
2023-01-01T03:55:48.913Z,100701.19
2023-01-01T03:58:24.751Z,100702.47
2023-01-01T04:01:01.497Z,100591.59
2023-01-01T04:03:31.176Z,100707.66
2023-01-01T04:05:58.262Z,100696.44
2023-01-01T04:08:25.429Z,100685.28
2023-01-01T04:10:57.246Z,100711.47
2023-01-01T04:13:24.380Z,100711.47
2023-01-01T04:15:51.565Z,100703.56
2023-01-01T04:18:18.805Z,100724.41
2023-01-01T04:20:45.686Z,100710.88
2023-01-01T04:23:12.549Z,100727.50
2023-01-01T04:25:39.579Z,100718.72
2023-01-01T04:28:06.991Z,100716.28
2023-01-01T04:32:59.940Z,100709.81
2023-01-01T04:35:26.874Z,100709.22
2023-01-01T04:37:54.022Z,100696.94
2023-01-01T04:40:20.987Z,100722.56
2023-01-01T04:42:48.036Z,100720.72
2023-01-01T04:45:15.597Z,100731.09
2023-01-01T04:47:42.902Z,100718.19
2023-01-01T04:50:10.659Z,100728.16
2023-01-01T04:52:37.605Z,100716.75
2023-01-01T04:55:04.924Z,100726.06
2023-01-01T04:57:32.090Z,100720.03
2023-01-01T05:00:00.111Z,100712.72
2023-01-01T05:02:27.543Z,100711.06
2023-01-01T05:04:54.625Z,100724.88
2023-01-01T05:07:21.627Z,100723.66
2023-01-01T05:09:48.611Z,100714.75
2023-01-01T05:12:15.723Z,100716.16
2023-01-01T05:14:42.694Z,100723.91
2023-01-01T05:17:09.724Z,100722.25
2023-01-01T05:19:36.530Z,100711.88
2023-01-01T05:22:10.191Z,100714.63
2023-01-01T05:24:37.989Z,100725.88
2023-01-01T05:27:05.643Z,100727.13
2023-01-01T05:29:32.635Z,100729.59
2023-01-01T05:31:59.648Z,100718.34
2023-01-01T05:34:27.462Z,100729.59
2023-01-01T05:36:54.844Z,100724.59
2023-01-01T05:39:21.910Z,100721.53
2023-01-01T05:41:49.196Z,100735.44
2023-01-01T05:44:17.383Z,100719.22
2023-01-01T05:46:44.481Z,100732.97
2023-01-01T05:49:12.161Z,100731.69
2023-01-01T05:54:05.235Z,100715.03
2023-01-01T05:56:32.372Z,100726.47
2023-01-01T05:58:59.426Z,100727.06
2023-01-01T06:01:29.138Z,100702.06
2023-01-01T06:03:58.180Z,100716.78
2023-01-01T06:06:33.347Z,100717.38
2023-01-01T06:09:02.767Z,100720.50
2023-01-01T06:11:30.803Z,100726.53
2023-01-01T06:13:59.995Z,100738.59
2023-01-01T06:16:31.292Z,100738.16
2023-01-01T06:18:59.393Z,100733.97
2023-01-01T06:21:28.325Z,100729.97
2023-01-01T06:23:59.884Z,100743.59
2023-01-01T06:26:31.054Z,100734.16
2023-01-01T06:28:58.951Z,100740.84
2023-01-01T06:31:32.996Z,100747.09
2023-01-01T06:34:04.168Z,100745.41
2023-01-01T06:36:30.990Z,100744.16
2023-01-01T06:39:00.243Z,100743.06
2023-01-01T06:41:42.851Z,100757.25
2023-01-01T06:44:10.990Z,100767.44
2023-01-01T06:46:37.933Z,100755.16
2023-01-01T06:49:11.351Z,100735.59
2023-01-01T06:51:41.474Z,100766.47
2023-01-01T06:54:08.986Z,100770.34
2023-01-01T06:56:36.819Z,100771.97
2023-01-01T06:59:04.817Z,100777.50
2023-01-01T07:01:35.795Z,100770.34
2023-01-01T07:04:08.652Z,100768.19
2023-01-01T07:06:36.660Z,100755.88
2023-01-01T07:09:05.281Z,100761.19
2023-01-01T07:11:33.229Z,100774.69
2023-01-01T07:14:01.599Z,100772.66
2023-01-01T07:16:28.790Z,100775.22
2023-01-01T07:18:57.549Z,100780.81
2023-01-01T07:21:36.431Z,100781.09
2023-01-01T07:24:05.658Z,100769.44
2023-01-01T07:26:34.427Z,100771.88
2023-01-01T07:29:08.033Z,100773.81
2023-01-01T07:31:40.319Z,100775.28
2023-01-01T07:34:10.047Z,100768.94
2023-01-01T07:36:37.103Z,100778.06
2023-01-01T07:39:04.206Z,100782.78
2023-01-01T07:41:31.123Z,100773.47
2023-01-01T07:43:59.464Z,100788.41
2023-01-01T07:46:27.475Z,100789.47
2023-01-01T07:48:54.348Z,100797.03
2023-01-01T07:51:21.579Z,100784.84
2023-01-01T07:53:48.601Z,100789.63
2023-01-01T07:56:16.095Z,100794.72
2023-01-01T07:58:42.925Z,100791.72
2023-01-01T08:01:12.533Z,100793.34
2023-01-01T08:03:39.684Z,100787.31
2023-01-01T08:06:11.588Z,100797.53
2023-01-01T08:08:38.847Z,100795.31
2023-01-01T08:11:06.365Z,100798.31
2023-01-01T08:13:33.218Z,100788.56
2023-01-01T08:16:00.371Z,100801.16
2023-01-01T08:18:27.372Z,100794.84
2023-01-01T08:20:54.435Z,100801.13
2023-01-01T08:23:21.475Z,100806.00
2023-01-01T08:25:48.480Z,100795.78
2023-01-01T08:28:15.439Z,100806.47
2023-01-01T08:30:43.473Z,100814.06
2023-01-01T08:33:12.112Z,100799.94
2023-01-01T08:35:42.062Z,100807.25
2023-01-01T08:38:12.144Z,100796.41
2023-01-01T08:40:39.477Z,100801.00
2023-01-01T08:43:06.427Z,100803.38
2023-01-01T08:45:33.933Z,100809.03
2023-01-01T08:48:01.031Z,100798.72
2023-01-01T08:50:27.950Z,100809.00
2023-01-01T08:52:59.270Z,100808.03
2023-01-01T08:55:28.721Z,100793.56
2023-01-01T08:57:55.693Z,100792.28
2023-01-01T09:00:22.561Z,100800.88
2023-01-01T09:02:49.980Z,100792.97
2023-01-01T09:05:17.272Z,100782.56
2023-01-01T09:07:44.407Z,100800.50
2023-01-01T09:10:11.319Z,100799.19
2023-01-01T09:12:38.431Z,100790.97
2023-01-01T09:15:06.442Z,100781.09
2023-01-01T09:17:33.245Z,100783.28
2023-01-01T09:20:00.350Z,100773.13
2023-01-01T09:22:27.380Z,100765.13
2023-01-01T09:24:54.601Z,100772.56
2023-01-01T09:27:21.727Z,100779.44
2023-01-01T09:30:00.172Z,100775.81
2023-01-01T09:32:39.727Z,100763.91
2023-01-01T09:35:07.991Z,100746.53
2023-01-01T09:37:37.812Z,100748.09
2023-01-01T09:40:09.431Z,100761.47
2023-01-01T09:42:49.278Z,100755.59
2023-01-01T09:45:29.618Z,100749.94
2023-01-01T09:47:59.457Z,100755.63
2023-01-01T09:50:36.725Z,100754.44
2023-01-01T09:53:21.404Z,100744.00
2023-01-01T09:55:58.543Z,100752.38
2023-01-01T09:58:36.267Z,100749.53
2023-01-01T10:01:29.608Z,100743.25
2023-01-01T10:04:13.611Z,100744.75
2023-01-01T10:06:56.842Z,100741.00
2023-01-01T10:13:07.007Z,100738.13
2023-01-01T10:15:40.807Z,100700.41
2023-01-01T10:18:22.313Z,100707.97
2023-01-01T10:20:59.599Z,100719.78
2023-01-01T10:23:39.174Z,100726.00
2023-01-01T10:26:15.284Z,100722.16
2023-01-01T10:29:05.836Z,100726.09
2023-01-01T10:31:34.629Z,100727.75
2023-01-01T10:34:16.940Z,100695.03
2023-01-01T10:36:54.801Z,100721.53
2023-01-01T10:39:24.093Z,100718.59
2023-01-01T10:41:51.869Z,100711.66
2023-01-01T10:44:34.837Z,100705.28
2023-01-01T10:47:26.498Z,100700.09
2023-01-01T10:50:00.669Z,100711.59
2023-01-01T10:52:46.589Z,100709.25
2023-01-01T10:55:21.665Z,100698.38
2023-01-01T10:57:48.940Z,100701.34
2023-01-01T11:00:32.258Z,100708.75
2023-01-01T11:03:20.130Z,100709.47
2023-01-01T11:06:16.189Z,100697.59
2023-01-01T11:08:54.017Z,100694.22
2023-01-01T11:11:29.591Z,100701.13
2023-01-01T11:14:00.510Z,100690.34
2023-01-01T11:16:29.275Z,100683.88
2023-01-01T11:19:06.181Z,100692.50
2023-01-01T11:21:35.276Z,100685.44
2023-01-01T11:24:22.378Z,100696.41
2023-01-01T11:26:54.916Z,100693.94
2023-01-01T11:29:30.477Z,100691.84
2023-01-01T11:32:10.844Z,100693.31
2023-01-01T11:34:44.402Z,100683.22
2023-01-01T11:37:26.901Z,100683.53
2023-01-01T11:39:56.773Z,100605.41
2023-01-01T11:42:29.270Z,100682.59
2023-01-01T11:45:14.449Z,100670.97
2023-01-01T11:47:43.704Z,100682.25
2023-01-01T11:50:16.787Z,100675.97
2023-01-01T11:52:46.975Z,100657.78
2023-01-01T11:55:39.126Z,100663.41
2023-01-01T11:58:28.358Z,100662.09
2023-01-01T12:01:02.302Z,100648.91
2023-01-01T12:03:40.964Z,100663.34
2023-01-01T12:06:25.170Z,100651.41
2023-01-01T12:09:18.663Z,100655.84
2023-01-01T12:11:57.962Z,100652.22
2023-01-01T12:14:46.666Z,100668.72
2023-01-01T12:17:23.891Z,100662.19
2023-01-01T12:20:40.634Z,100650.38
2023-01-01T12:23:06.556Z,100645.75
2023-01-01T12:25:41.307Z,100641.94
2023-01-01T12:28:23.671Z,100652.13
2023-01-01T12:31:14.115Z,100655.59
2023-01-01T12:34:23.392Z,100637.53
2023-01-01T12:37:19.712Z,100650.13
2023-01-01T12:40:24.320Z,100640.78
2023-01-01T12:43:07.095Z,100654.09
2023-01-01T12:49:28.430Z,100640.91
2023-01-01T12:52:14.770Z,100645.63
2023-01-01T12:55:20.095Z,100641.41
2023-01-01T12:58:20.180Z,100646.50
2023-01-01T13:00:59.735Z,100650.56
2023-01-01T13:03:57.421Z,100642.72
2023-01-01T13:06:52.435Z,100641.06
2023-01-01T13:09:23.859Z,100644.94
2023-01-01T13:11:55.571Z,100639.34
2023-01-01T13:14:23.053Z,100647.59
2023-01-01T13:16:56.979Z,100644.06
2023-01-01T13:19:33.104Z,100640.81
2023-01-01T13:22:21.238Z,100651.28
2023-01-01T13:25:07.114Z,100643.78
2023-01-01T13:28:05.173Z,100644.66
2023-01-01T13:30:38.402Z,100639.03
2023-01-01T13:33:36.909Z,100647.75
2023-01-01T13:36:10.502Z,100649.91
2023-01-01T13:39:04.070Z,100651.31
2023-01-01T13:41:39.374Z,100645.31
2023-01-01T13:44:07.933Z,100642.47
2023-01-01T13:47:09.338Z,100651.16
2023-01-01T13:49:42.383Z,100651.88
2023-01-01T13:52:28.275Z,100645.13
2023-01-01T13:55:32.241Z,100649.13
2023-01-01T13:58:07.791Z,100654.31
2023-01-01T14:01:05.999Z,100643.47
2023-01-01T14:03:40.849Z,100640.19
2023-01-01T14:06:37.892Z,100641.22
2023-01-01T14:09:14.228Z,100635.03
2023-01-01T14:11:42.109Z,100636.28
2023-01-01T14:14:24.627Z,100635.94
2023-01-01T14:16:53.969Z,100652.34
2023-01-01T14:19:22.793Z,100647.56
2023-01-01T14:21:50.291Z,100644.88
2023-01-01T14:24:19.840Z,100647.53
2023-01-01T14:26:47.881Z,100635.00
2023-01-01T14:29:42.285Z,100640.19
2023-01-01T14:32:24.439Z,100644.78
2023-01-01T14:35:01.770Z,100637.56
2023-01-01T14:37:29.574Z,100647.41
2023-01-01T14:40:18.240Z,100637.09
2023-01-01T14:42:49.129Z,100635.88
2023-01-01T14:45:18.398Z,100639.84
2023-01-01T14:47:52.272Z,100629.91
2023-01-01T14:50:31.262Z,100631.75
2023-01-01T14:53:08.971Z,100641.09
2023-01-01T14:55:47.257Z,100644.34
2023-01-01T14:58:19.870Z,100643.56
2023-01-01T15:00:46.999Z,100626.13
2023-01-01T15:03:22.880Z,100649.81
2023-01-01T15:06:01.425Z,100633.19
2023-01-01T15:08:28.755Z,100637.22
2023-01-01T15:10:56.900Z,100629.38
2023-01-01T15:13:32.508Z,100628.63
2023-01-01T15:16:45.804Z,100643.03
2023-01-01T15:19:20.868Z,100651.69
2023-01-01T15:22:43.985Z,100643.22
2023-01-01T15:25:52.212Z,100644.16
2023-01-01T15:28:53.244Z,100626.41
2023-01-01T15:31:20.425Z,100634.16
2023-01-01T15:34:04.875Z,100641.88
2023-01-01T15:36:33.536Z,100647.41
2023-01-01T15:39:56.016Z,100654.06
2023-01-01T15:42:38.848Z,100656.91
2023-01-01T15:45:31.111Z,100653.34
2023-01-01T15:48:32.096Z,100635.59
2023-01-01T15:51:25.911Z,100644.94
2023-01-01T15:54:02.228Z,100649.91
2023-01-01T15:56:41.726Z,100652.13
2023-01-01T15:59:27.746Z,100655.44
2023-01-01T16:02:15.044Z,100650.78
2023-01-01T16:04:50.124Z,100626.94
2023-01-01T16:07:20.990Z,100662.66
2023-01-01T16:09:51.987Z,100654.69
2023-01-01T16:12:24.050Z,100638.75
2023-01-01T16:14:51.068Z,100645.06
2023-01-01T16:17:20.735Z,100629.66
2023-01-01T16:19:48.460Z,100657.69
2023-01-01T16:22:17.686Z,100654.13
2023-01-01T16:24:45.624Z,100667.28
2023-01-01T16:27:12.869Z,100666.47
2023-01-01T16:29:54.352Z,100661.47
2023-01-01T16:32:23.652Z,100660.66
2023-01-01T16:34:59.818Z,100664.78
2023-01-01T16:37:27.750Z,100666.41
2023-01-01T16:39:54.596Z,100664.97
2023-01-01T16:42:39.685Z,100672.69
2023-01-01T16:45:07.420Z,100672.31
2023-01-01T16:47:34.762Z,100673.97
2023-01-01T16:50:01.783Z,100676.69
2023-01-01T16:52:33.533Z,100671.94
2023-01-01T16:55:01.040Z,100680.41
2023-01-01T16:57:28.077Z,100652.88
2023-01-01T16:59:55.139Z,100681.19
2023-01-01T17:02:22.030Z,100681.94
2023-01-01T17:04:48.978Z,100665.63
2023-01-01T17:07:15.965Z,100679.06
2023-01-01T17:09:43.250Z,100684.53
2023-01-01T17:12:58.960Z,100689.47
2023-01-01T17:15:25.923Z,100672.56
2023-01-01T17:18:07.765Z,100691.31
2023-01-01T17:20:44.430Z,100675.81
2023-01-01T17:23:11.435Z,100686.25
2023-01-01T17:25:38.490Z,100695.56
2023-01-01T17:28:05.575Z,100691.38
2023-01-01T17:30:32.609Z,100684.97
2023-01-01T17:32:59.700Z,100692.38
2023-01-01T17:35:32.911Z,100701.09
2023-01-01T17:38:00.251Z,100694.19
2023-01-01T17:40:30.799Z,100681.16
2023-01-01T17:43:00.665Z,100703.16
2023-01-01T17:45:27.559Z,100688.75
2023-01-01T17:47:56.061Z,100699.63
2023-01-01T17:50:24.297Z,100702.94
2023-01-01T17:52:55.115Z,100699.84
2023-01-01T17:55:22.672Z,100702.72
2023-01-01T17:57:59.348Z,100707.31
2023-01-01T18:00:28.087Z,100704.28
2023-01-01T18:02:55.385Z,100677.31
2023-01-01T18:05:22.627Z,100699.63
2023-01-01T18:07:53.021Z,100700.47
2023-01-01T18:10:20.926Z,100699.31
2023-01-01T18:12:47.777Z,100690.66
2023-01-01T18:15:15.554Z,100693.66
2023-01-01T18:17:43.566Z,100702.38
2023-01-01T18:20:10.983Z,100694.34
2023-01-01T18:22:42.940Z,100687.09
2023-01-01T18:25:10.720Z,100693.03
2023-01-01T18:27:37.866Z,100683.34
2023-01-01T18:30:05.777Z,100695.94
2023-01-01T18:32:32.793Z,100696.38
2023-01-01T18:34:59.855Z,100686.44
2023-01-01T18:37:27.064Z,100682.16
2023-01-01T18:39:59.293Z,100685.66
2023-01-01T18:42:49.416Z,100683.44
2023-01-01T18:45:22.775Z,100685.19
2023-01-01T18:47:55.823Z,100691.22
2023-01-01T18:50:26.612Z,100695.44
2023-01-01T18:52:58.281Z,100679.16
2023-01-01T18:55:28.214Z,100696.13
2023-01-01T18:58:00.532Z,100686.44
2023-01-01T19:00:31.177Z,100686.44
2023-01-01T19:03:01.172Z,100692.91
2023-01-01T19:05:30.843Z,100694.06
2023-01-01T19:08:05.165Z,100690.16
2023-01-01T19:10:35.753Z,100682.63
2023-01-01T19:13:29.053Z,100686.59
2023-01-01T19:16:11.840Z,100683.28
2023-01-01T19:18:41.096Z,100692.88
2023-01-01T19:21:08.015Z,100687.09
2023-01-01T19:23:38.998Z,100682.38
2023-01-01T19:26:11.598Z,100658.47
2023-01-01T19:28:41.564Z,100690.91
2023-01-01T19:31:09.807Z,100693.13
2023-01-01T19:33:36.703Z,100689.50
2023-01-01T19:36:03.958Z,100678.00
2023-01-01T19:38:32.259Z,100679.41
2023-01-01T19:40:59.173Z,100699.31
2023-01-01T19:43:27.452Z,100699.66
2023-01-01T19:45:54.828Z,100691.13
2023-01-01T19:48:21.974Z,100691.88
2023-01-01T19:50:50.149Z,100698.66
2023-01-01T19:53:17.240Z,100692.81
2023-01-01T19:55:44.332Z,100688.88
2023-01-01T19:58:11.340Z,100702.28
2023-01-01T20:00:38.759Z,100699.44
2023-01-01T20:03:42.720Z,100685.47
2023-01-01T20:05:52.700Z,100692.81
2023-01-01T20:08:19.838Z,100694.38
2023-01-01T20:10:46.863Z,100692.97
2023-01-01T20:13:13.960Z,100690.00
2023-01-01T20:15:46.515Z,100688.00
2023-01-01T20:18:14.236Z,100693.09
2023-01-01T20:21:00.005Z,100689.78
2023-01-01T20:23:27.215Z,100691.13
2023-01-01T20:25:54.190Z,100682.34
2023-01-01T20:28:40.008Z,100697.16
2023-01-01T20:31:07.064Z,100696.56
2023-01-01T20:33:34.262Z,100685.06
2023-01-01T20:36:19.966Z,100697.97
2023-01-01T20:38:47.239Z,100694.66
2023-01-01T20:41:23.467Z,100694.56
2023-01-01T20:44:01.583Z,100699.81
2023-01-01T20:46:31.879Z,100699.13
2023-01-01T20:48:59.495Z,100702.25
2023-01-01T20:51:27.599Z,100684.50
2023-01-01T20:53:54.559Z,100688.78
2023-01-01T20:56:21.620Z,100702.88
2023-01-01T20:58:53.311Z,100707.97
2023-01-01T21:01:25.087Z,100689.75
2023-01-01T21:03:52.019Z,100691.97
2023-01-01T21:06:24.215Z,100692.47
2023-01-01T21:08:52.566Z,100690.94
2023-01-01T21:11:19.455Z,100695.66
2023-01-01T21:13:47.703Z,100688.44
2023-01-01T21:16:17.647Z,100699.09
2023-01-01T21:18:46.246Z,100692.94
2023-01-01T21:21:16.065Z,100696.75
2023-01-01T21:23:43.245Z,100690.59
2023-01-01T21:26:36.212Z,100678.41
2023-01-01T21:29:12.671Z,100621.25
2023-01-01T21:31:40.548Z,100684.78
2023-01-01T21:34:29.031Z,100685.72
2023-01-01T21:37:02.086Z,100626.59
2023-01-01T21:39:31.016Z,100683.72
2023-01-01T21:42:16.260Z,100690.94
2023-01-01T21:44:43.381Z,100682.91
2023-01-01T21:47:25.101Z,100683.38
2023-01-01T21:50:01.597Z,100689.28
2023-01-01T21:52:34.058Z,100689.03
2023-01-01T21:55:09.307Z,100682.69
2023-01-01T21:57:37.920Z,100677.00
2023-01-01T22:00:10.941Z,100680.78
2023-01-01T22:02:39.695Z,100681.84
2023-01-01T22:05:37.645Z,100677.72
2023-01-01T22:08:24.874Z,100685.03
2023-01-01T22:10:54.921Z,100675.44
2023-01-01T22:13:22.789Z,100655.81
2023-01-01T22:15:49.860Z,100680.66
2023-01-01T22:18:31.600Z,100672.97
2023-01-01T22:21:02.917Z,100675.81
2023-01-01T22:23:35.601Z,100681.50
2023-01-01T22:26:12.018Z,100669.66
2023-01-01T22:28:43.801Z,100669.28
2023-01-01T22:31:18.010Z,100673.44
2023-01-01T22:33:48.146Z,100677.81
2023-01-01T22:36:26.347Z,100655.78
2023-01-01T22:38:59.906Z,100672.56
2023-01-01T22:41:27.087Z,100663.44
2023-01-01T22:44:02.651Z,100636.47
2023-01-01T22:46:35.967Z,100663.44
2023-01-01T22:49:18.524Z,100665.09
2023-01-01T22:51:47.677Z,100658.59
2023-01-01T22:54:14.660Z,100664.28
2023-01-01T22:56:41.637Z,100655.88
2023-01-01T22:59:08.489Z,100662.38
2023-01-01T23:01:36.184Z,100666.16
2023-01-01T23:04:04.385Z,100658.47
2023-01-01T23:06:32.714Z,100664.03
2023-01-01T23:09:00.184Z,100665.56
2023-01-01T23:11:27.816Z,100660.47
2023-01-01T23:14:13.467Z,100658.69
2023-01-01T23:16:41.192Z,100657.84
2023-01-01T23:19:32.057Z,100626.16
2023-01-01T23:22:01.874Z,100649.94
2023-01-01T23:24:30.415Z,100660.56
2023-01-01T23:26:59.475Z,100659.97
2023-01-01T23:29:32.305Z,100659.28
2023-01-01T23:32:01.565Z,100653.00
2023-01-01T23:34:28.794Z,100659.88
2023-01-01T23:36:57.298Z,100659.03
2023-01-01T23:39:24.220Z,100660.09
2023-01-01T23:41:51.721Z,100655.38
2023-01-01T23:44:21.883Z,100633.38
2023-01-01T23:46:49.109Z,100638.22
2023-01-01T23:49:16.919Z,100633.97
2023-01-01T23:51:43.967Z,100636.22
2023-01-01T23:54:10.904Z,100640.47
2023-01-01T23:56:38.434Z,100633.38
2023-01-01T23:59:05.659Z,100646.38
